createdAt,value
2022-12-14T00:00:12.005Z,2.13
2022-12-14T00:01:12.776Z,1.20
2022-12-14T00:02:12.268Z,2.68
2022-12-14T00:03:11.614Z,3.04
2022-12-14T00:04:08.462Z,1.95
2022-12-14T00:05:06.793Z,2.53
2022-12-14T00:06:18.885Z,1.94
2022-12-14T00:07:15.669Z,2.28
2022-12-14T00:08:17.336Z,1.53
2022-12-14T00:09:14.209Z,1.44
2022-12-14T00:10:13.626Z,2.27
2022-12-14T00:11:22.805Z,2.23
2022-12-14T00:12:19.670Z,1.62
2022-12-14T00:13:16.496Z,2.14
2022-12-14T00:14:13.354Z,1.99
2022-12-14T00:15:10.309Z,2.19
2022-12-14T00:16:09.427Z,2.01
2022-12-14T00:17:06.288Z,1.91
2022-12-14T00:18:03.395Z,1.40
2022-12-14T00:19:01.741Z,2.01
2022-12-14T00:19:58.491Z,1.92
2022-12-14T00:21:03.267Z,1.80
2022-12-14T00:22:00.073Z,1.44
2022-12-14T00:23:13.964Z,2.38
2022-12-14T00:24:10.985Z,-0.15
2022-12-14T00:25:08.192Z,2.67
2022-12-14T00:26:15.325Z,2.31
2022-12-14T00:27:12.435Z,1.65
2022-12-14T00:28:09.332Z,1.03
2022-12-14T00:29:06.253Z,1.16
2022-12-14T00:30:03.507Z,1.99
2022-12-14T00:31:01.771Z,1.10
2022-12-14T00:31:58.631Z,1.86
2022-12-14T00:32:55.527Z,1.26
2022-12-14T00:33:53.169Z,1.64
2022-12-14T00:34:50.009Z,1.68
2022-12-14T00:35:46.823Z,1.51
2022-12-14T00:36:48.027Z,-0.24
2022-12-14T00:37:45.940Z,1.88
2022-12-14T00:38:46.024Z,1.36
2022-12-14T00:39:42.871Z,0.81
2022-12-14T00:40:39.669Z,0.43
2022-12-14T00:41:36.444Z,1.71
2022-12-14T00:42:34.143Z,0.83
2022-12-14T00:43:31.560Z,1.68
2022-12-14T00:44:28.343Z,2.17
2022-12-14T00:45:25.255Z,2.47
2022-12-14T00:46:22.149Z,1.60
2022-12-14T00:47:18.942Z,1.77
2022-12-14T00:48:19.146Z,2.14
2022-12-14T00:49:16.038Z,2.10
2022-12-14T00:50:12.806Z,1.38
2022-12-14T00:51:09.532Z,1.16
2022-12-14T00:52:06.494Z,1.45
2022-12-14T00:53:03.311Z,1.38
2022-12-14T00:54:00.103Z,0.94
2022-12-14T00:54:56.890Z,2.25
2022-12-14T00:55:53.693Z,2.16
2022-12-14T00:56:50.505Z,2.19
2022-12-14T00:57:47.296Z,2.33
2022-12-14T00:58:44.146Z,1.95
2022-12-14T00:59:40.908Z,3.36
2022-12-14T01:00:37.962Z,3.44
2022-12-14T01:01:35.138Z,3.23
2022-12-14T01:02:32.081Z,2.76
2022-12-14T01:03:32.257Z,2.67
2022-12-14T01:04:30.164Z,2.26
2022-12-14T01:05:27.048Z,3.09
2022-12-14T01:06:24.024Z,3.43
2022-12-14T01:07:20.847Z,0.58
2022-12-14T01:08:17.734Z,2.41
2022-12-14T01:09:14.967Z,1.99
2022-12-14T01:10:11.778Z,1.54
2022-12-14T01:11:10.143Z,2.90
2022-12-14T01:12:06.948Z,1.60
2022-12-14T01:13:03.721Z,2.31
2022-12-14T01:14:00.536Z,2.39
2022-12-14T01:14:57.334Z,2.06
2022-12-14T01:15:54.092Z,3.32
2022-12-14T01:16:50.922Z,2.00
2022-12-14T01:17:47.737Z,3.18
2022-12-14T01:18:44.539Z,3.40
2022-12-14T01:19:41.474Z,3.87
2022-12-14T01:20:38.293Z,3.49
2022-12-14T01:21:35.109Z,3.59
2022-12-14T01:22:32.164Z,2.13
2022-12-14T01:23:29.966Z,4.00
2022-12-14T01:24:30.076Z,4.01
2022-12-14T01:25:26.962Z,3.89
2022-12-14T01:26:45.246Z,4.07
2022-12-14T01:27:42.067Z,3.76
2022-12-14T01:28:38.995Z,3.29
2022-12-14T01:29:35.936Z,3.97
2022-12-14T01:30:32.686Z,3.35
2022-12-14T01:31:33.060Z,3.84
2022-12-14T01:32:29.972Z,3.99
2022-12-14T01:33:26.962Z,3.92
2022-12-14T01:34:23.896Z,3.31
2022-12-14T01:35:20.725Z,3.50
2022-12-14T01:36:23.685Z,2.85
2022-12-14T01:37:20.442Z,4.03
2022-12-14T01:38:17.177Z,3.32
2022-12-14T01:39:16.457Z,3.96
2022-12-14T01:40:13.238Z,3.57
2022-12-14T01:41:28.157Z,3.09
2022-12-14T01:42:24.911Z,3.61
2022-12-14T01:43:21.663Z,3.04
2022-12-14T01:44:18.430Z,3.99
2022-12-14T01:45:21.765Z,3.86
2022-12-14T01:46:33.440Z,3.25
2022-12-14T01:47:43.445Z,3.76
2022-12-14T01:48:40.492Z,3.76
2022-12-14T01:49:47.425Z,4.01
2022-12-14T01:50:47.280Z,2.85
2022-12-14T01:51:53.761Z,4.03
2022-12-14T01:52:56.755Z,3.69
2022-12-14T01:53:56.081Z,3.82
2022-12-14T01:55:03.092Z,2.17
2022-12-14T01:55:59.878Z,3.97
2022-12-14T01:56:57.781Z,2.88
2022-12-14T01:58:10.589Z,3.66
2022-12-14T01:59:31.739Z,3.53
2022-12-14T02:00:29.017Z,2.66
2022-12-14T02:01:28.715Z,1.24
2022-12-14T02:02:27.464Z,3.60
2022-12-14T02:03:33.795Z,3.78
2022-12-14T02:04:37.783Z,3.99
2022-12-14T02:05:40.492Z,3.83
2022-12-14T02:06:42.901Z,3.23
2022-12-14T02:07:42.882Z,3.81
2022-12-14T02:08:53.367Z,3.81
2022-12-14T02:09:53.827Z,3.88
2022-12-14T02:10:54.557Z,2.16
2022-12-14T02:12:12.757Z,3.50
2022-12-14T02:13:18.350Z,2.55
2022-12-14T02:14:15.332Z,2.83
2022-12-14T02:15:14.139Z,3.45
2022-12-14T02:16:11.060Z,3.28
2022-12-14T02:17:11.000Z,3.54
2022-12-14T02:18:14.734Z,3.71
2022-12-14T02:19:11.712Z,3.94
2022-12-14T02:20:09.028Z,2.80
2022-12-14T02:21:54.236Z,3.42
2022-12-14T02:23:21.189Z,3.91
2022-12-14T02:24:40.806Z,3.74
2022-12-14T02:25:52.462Z,3.82
2022-12-14T02:26:49.135Z,3.91
2022-12-14T02:28:04.319Z,4.00
2022-12-14T02:29:38.336Z,3.89
2022-12-14T02:30:42.767Z,3.79
2022-12-14T02:31:45.207Z,3.96
2022-12-14T02:33:10.117Z,3.73
2022-12-14T02:34:21.170Z,3.01
2022-12-14T02:35:23.605Z,3.82
2022-12-14T02:36:45.775Z,3.80
2022-12-14T02:37:59.065Z,3.97
2022-12-14T02:39:01.599Z,4.04
2022-12-14T02:40:10.029Z,3.34
2022-12-14T02:41:22.750Z,0.02
2022-12-14T02:42:54.818Z,3.53
2022-12-14T02:44:15.362Z,2.55
2022-12-14T02:45:31.598Z,3.74
2022-12-14T02:46:34.117Z,2.46
2022-12-14T02:47:39.160Z,3.24
2022-12-14T02:49:06.274Z,3.60
2022-12-14T02:50:13.850Z,3.55
2022-12-14T02:51:37.150Z,3.83
2022-12-14T02:53:13.667Z,3.63
2022-12-14T02:54:20.476Z,3.51
2022-12-14T02:55:17.263Z,3.74
2022-12-14T02:56:22.288Z,3.74
2022-12-14T02:57:25.232Z,3.78
2022-12-14T02:58:37.570Z,3.87
2022-12-14T02:59:34.569Z,3.97
2022-12-14T03:00:34.644Z,3.66
2022-12-14T03:01:31.630Z,2.82
2022-12-14T03:02:30.938Z,3.70
2022-12-14T03:03:28.445Z,3.53
2022-12-14T03:04:25.605Z,3.35
2022-12-14T03:05:22.905Z,2.81
2022-12-14T03:06:28.698Z,2.76
2022-12-14T03:07:34.293Z,3.26
2022-12-14T03:08:36.129Z,2.64
2022-12-14T03:09:33.140Z,2.23
2022-12-14T03:10:55.766Z,3.14
2022-12-14T03:11:59.603Z,1.61
2022-12-14T03:13:09.313Z,3.73
2022-12-14T03:14:15.666Z,3.74
2022-12-14T03:15:18.246Z,3.66
2022-12-14T03:16:35.879Z,3.84
2022-12-14T03:17:34.410Z,4.04
2022-12-14T03:18:41.579Z,4.02
2022-12-14T03:19:45.983Z,1.97
2022-12-14T03:20:53.646Z,0.67
2022-12-14T03:21:57.932Z,3.62
2022-12-14T03:23:03.391Z,3.87
2022-12-14T03:24:07.679Z,4.03
2022-12-14T03:25:15.012Z,3.92
2022-12-14T03:26:21.863Z,3.96
2022-12-14T03:27:24.503Z,4.03
2022-12-14T03:28:43.194Z,3.76
2022-12-14T03:29:48.730Z,3.51
2022-12-14T03:31:01.787Z,2.77
2022-12-14T03:32:14.007Z,3.17
2022-12-14T03:33:20.538Z,2.35
2022-12-14T03:34:24.531Z,3.82
2022-12-14T03:35:34.421Z,3.11
2022-12-14T03:36:43.765Z,4.03
2022-12-14T03:37:57.001Z,4.10
2022-12-14T03:39:03.146Z,4.09
2022-12-14T03:40:00.143Z,2.37
2022-12-14T03:41:33.417Z,3.83
2022-12-14T03:42:44.436Z,3.75
2022-12-14T03:44:27.735Z,3.15
2022-12-14T03:45:37.951Z,1.85
2022-12-14T03:46:37.708Z,3.68
2022-12-14T03:47:57.605Z,3.09
2022-12-14T03:49:06.996Z,3.06
2022-12-14T03:50:17.701Z,2.03
2022-12-14T03:51:43.860Z,2.67
2022-12-14T03:52:44.965Z,3.82
2022-12-14T03:54:16.944Z,2.90
2022-12-14T03:55:36.523Z,3.86
2022-12-14T03:56:51.271Z,3.51
2022-12-14T03:58:07.109Z,3.74
2022-12-14T03:59:33.134Z,2.86
2022-12-14T04:00:40.628Z,3.37
2022-12-14T04:02:09.765Z,4.01
2022-12-14T04:03:20.307Z,3.94
2022-12-14T04:04:32.702Z,3.40
2022-12-14T04:05:49.151Z,3.65
2022-12-14T04:06:48.581Z,3.37
2022-12-14T04:08:16.998Z,2.18
2022-12-14T04:09:36.921Z,2.88
2022-12-14T04:11:05.548Z,2.86
2022-12-14T04:12:32.683Z,2.59
2022-12-14T04:14:00.716Z,1.77
2022-12-14T04:15:29.249Z,3.26
2022-12-14T04:16:51.913Z,3.40
2022-12-14T04:18:14.420Z,3.93
2022-12-14T04:19:27.637Z,4.19
2022-12-14T04:20:40.617Z,4.01
2022-12-14T04:21:58.877Z,4.20
2022-12-14T04:23:11.970Z,3.97
2022-12-14T04:24:53.286Z,4.06
2022-12-14T04:26:05.838Z,3.05
2022-12-14T04:27:29.867Z,4.04
2022-12-14T04:28:56.460Z,2.86
2022-12-14T04:29:56.762Z,3.86
2022-12-14T04:30:54.306Z,4.14
2022-12-14T04:31:59.843Z,4.25
2022-12-14T04:33:31.887Z,3.85
2022-12-14T04:34:32.638Z,3.11
2022-12-14T04:35:37.861Z,2.32
2022-12-14T04:36:58.706Z,3.90
2022-12-14T04:38:05.041Z,3.14
2022-12-14T04:39:15.778Z,4.20
2022-12-14T04:40:19.391Z,3.80
2022-12-14T04:41:24.700Z,4.01
2022-12-14T04:42:32.986Z,2.77
2022-12-14T04:43:36.731Z,2.66
2022-12-14T04:44:40.219Z,3.23
2022-12-14T04:45:52.583Z,2.89
2022-12-14T04:46:53.679Z,3.24
2022-12-14T04:48:17.355Z,4.07
2022-12-14T04:49:25.142Z,3.36
2022-12-14T04:50:39.807Z,3.69
2022-12-14T04:51:50.609Z,3.85
2022-12-14T04:53:07.650Z,4.35
2022-12-14T04:54:37.877Z,3.53
2022-12-14T04:55:42.175Z,2.60
2022-12-14T04:57:25.965Z,4.06
2022-12-14T04:58:28.323Z,3.42
2022-12-14T04:59:26.002Z,3.70
2022-12-14T05:00:23.367Z,3.49
2022-12-14T05:01:44.641Z,3.37
2022-12-14T05:03:04.469Z,3.95
2022-12-14T05:04:19.542Z,4.18
2022-12-14T05:05:28.274Z,4.48
2022-12-14T05:06:36.502Z,3.27
2022-12-14T05:07:53.479Z,4.25
2022-12-14T05:09:01.863Z,4.07
2022-12-14T05:10:16.973Z,3.85
2022-12-14T05:11:52.515Z,3.58
2022-12-14T05:13:02.537Z,3.64
2022-12-14T05:14:27.905Z,3.38
2022-12-14T05:15:40.866Z,2.32
2022-12-14T05:16:43.975Z,2.42
2022-12-14T05:17:46.259Z,2.83
2022-12-14T05:18:54.836Z,2.36
2022-12-14T05:19:52.296Z,2.41
2022-12-14T05:20:58.026Z,2.70
2022-12-14T05:21:56.165Z,0.97
2022-12-14T05:22:52.947Z,2.05
2022-12-14T05:23:49.722Z,1.40
2022-12-14T05:24:47.116Z,2.00
2022-12-14T05:25:44.111Z,2.33
2022-12-14T05:26:41.399Z,2.59
2022-12-14T05:27:38.873Z,2.44
2022-12-14T05:28:35.626Z,1.62
2022-12-14T05:29:32.756Z,1.10
2022-12-14T05:30:29.578Z,2.19
2022-12-14T05:31:26.524Z,0.86
2022-12-14T05:32:23.644Z,2.44
2022-12-14T05:33:20.858Z,2.87
2022-12-14T05:34:18.042Z,3.81
2022-12-14T05:35:15.455Z,3.70
2022-12-14T05:36:12.156Z,3.83
2022-12-14T05:37:14.581Z,3.70
2022-12-14T05:38:15.019Z,2.67
2022-12-14T05:39:11.817Z,2.77
2022-12-14T05:40:10.110Z,3.55
2022-12-14T05:41:14.593Z,2.76
2022-12-14T05:42:11.398Z,3.26
2022-12-14T05:43:12.315Z,3.93
2022-12-14T05:44:09.449Z,3.93
2022-12-14T05:45:07.270Z,3.98
2022-12-14T05:46:05.312Z,4.12
2022-12-14T05:47:02.047Z,4.19
2022-12-14T05:47:58.914Z,3.92
2022-12-14T05:48:55.717Z,2.87
2022-12-14T05:49:53.154Z,2.65
2022-12-14T05:50:49.977Z,3.29
2022-12-14T05:51:48.717Z,3.01
2022-12-14T05:52:45.411Z,3.55
2022-12-14T05:53:42.229Z,3.97
2022-12-14T05:54:39.284Z,3.04
2022-12-14T05:55:36.030Z,3.38
2022-12-14T05:56:32.870Z,3.65
2022-12-14T05:57:30.662Z,2.82
2022-12-14T05:58:27.696Z,2.74
2022-12-14T05:59:24.670Z,3.15
2022-12-14T06:00:21.891Z,1.63
2022-12-14T06:01:19.541Z,2.78
2022-12-14T06:02:19.575Z,3.86
2022-12-14T06:03:16.628Z,3.41
2022-12-14T06:04:15.771Z,3.40
2022-12-14T06:05:12.694Z,3.70
2022-12-14T06:06:12.399Z,3.64
2022-12-14T06:07:11.462Z,3.98
2022-12-14T06:08:08.363Z,3.24
2022-12-14T06:09:11.431Z,3.79
2022-12-14T06:10:08.651Z,3.62
2022-12-14T06:11:13.287Z,3.89
2022-12-14T06:12:10.147Z,3.74
2022-12-14T06:13:06.946Z,2.18
2022-12-14T06:14:04.371Z,3.34
2022-12-14T06:15:01.205Z,3.16
2022-12-14T06:16:15.095Z,3.42
2022-12-14T06:17:12.745Z,2.45
2022-12-14T06:18:09.540Z,2.68
2022-12-14T06:19:06.406Z,2.99
2022-12-14T06:20:04.870Z,2.96
2022-12-14T06:21:01.685Z,2.02
2022-12-14T06:21:58.691Z,3.36
2022-12-14T06:22:55.673Z,2.10
2022-12-14T06:23:52.902Z,2.62
2022-12-14T06:24:51.137Z,3.27
2022-12-14T06:25:55.380Z,3.32
2022-12-14T06:26:52.259Z,3.35
2022-12-14T06:27:53.185Z,3.10
2022-12-14T06:28:50.709Z,1.37
2022-12-14T06:29:47.429Z,3.17
2022-12-14T06:30:47.527Z,2.63
2022-12-14T06:31:45.353Z,3.18
2022-12-14T06:32:46.020Z,3.23
2022-12-14T06:33:46.691Z,0.26
2022-12-14T06:34:49.763Z,3.23
2022-12-14T06:35:49.485Z,3.50
2022-12-14T06:36:47.076Z,3.93
2022-12-14T06:37:43.916Z,3.78
2022-12-14T06:38:46.303Z,3.81
2022-12-14T06:39:43.105Z,3.30
2022-12-14T06:40:41.233Z,3.80
2022-12-14T06:41:40.865Z,3.54
2022-12-14T06:42:37.598Z,3.75
2022-12-14T06:43:34.511Z,3.14
2022-12-14T06:44:31.338Z,3.81
2022-12-14T06:45:29.110Z,3.14
2022-12-14T06:46:25.899Z,3.28
2022-12-14T06:47:22.740Z,1.59
2022-12-14T06:48:19.488Z,3.29
2022-12-14T06:49:16.811Z,3.61
2022-12-14T06:50:13.707Z,3.36
2022-12-14T06:51:10.509Z,3.69
2022-12-14T06:52:13.577Z,3.75
2022-12-14T06:53:13.941Z,1.90
2022-12-14T06:54:12.582Z,2.79
2022-12-14T06:55:09.376Z,2.82
2022-12-14T06:56:12.639Z,2.96
2022-12-14T06:57:09.337Z,3.28
2022-12-14T06:58:08.861Z,2.96
2022-12-14T06:59:05.851Z,3.66
2022-12-14T07:00:03.358Z,2.64
2022-12-14T07:01:15.156Z,3.30
2022-12-14T07:02:16.537Z,2.78
2022-12-14T07:03:13.645Z,3.53
2022-12-14T07:04:10.476Z,3.36
2022-12-14T07:05:07.537Z,3.64
2022-12-14T07:06:06.235Z,3.70
2022-12-14T07:07:03.159Z,3.63
2022-12-14T07:08:02.018Z,3.50
2022-12-14T07:09:00.250Z,2.62
2022-12-14T07:09:59.210Z,3.64
2022-12-14T07:11:01.981Z,3.15
2022-12-14T07:11:59.068Z,2.73
2022-12-14T07:12:55.962Z,3.58
2022-12-14T07:14:08.655Z,3.83
2022-12-14T07:15:08.730Z,3.71
2022-12-14T07:16:07.630Z,3.10
2022-12-14T07:17:04.767Z,3.39
2022-12-14T07:18:01.598Z,3.52
2022-12-14T07:18:58.793Z,3.24
2022-12-14T07:19:55.897Z,3.68
2022-12-14T07:21:09.631Z,3.69
2022-12-14T07:22:06.540Z,2.69
2022-12-14T07:23:03.306Z,2.73
2022-12-14T07:24:01.484Z,3.09
2022-12-14T07:24:58.748Z,3.41
2022-12-14T07:26:07.133Z,3.69
2022-12-14T07:27:04.492Z,3.21
2022-12-14T07:28:01.227Z,3.40
2022-12-14T07:29:00.758Z,3.66
2022-12-14T07:29:57.569Z,3.09
2022-12-14T07:30:59.081Z,3.25
2022-12-14T07:31:55.952Z,2.63
2022-12-14T07:32:52.763Z,2.45
2022-12-14T07:33:57.038Z,2.85
2022-12-14T07:34:53.822Z,3.50
2022-12-14T07:35:50.861Z,1.49
2022-12-14T07:36:51.117Z,2.03
2022-12-14T07:37:49.607Z,3.39
2022-12-14T07:38:49.165Z,3.40
2022-12-14T07:39:46.040Z,3.59
2022-12-14T07:40:43.571Z,3.34
2022-12-14T07:41:44.684Z,3.98
2022-12-14T07:42:41.531Z,3.31
2022-12-14T07:43:42.938Z,3.63
2022-12-14T07:44:39.781Z,3.61
2022-12-14T07:45:38.034Z,2.98
2022-12-14T07:46:35.154Z,3.89
2022-12-14T07:47:32.010Z,0.87
2022-12-14T07:48:30.189Z,3.96
2022-12-14T07:49:26.912Z,3.97
2022-12-14T07:50:23.733Z,3.93
2022-12-14T07:51:23.732Z,3.97
2022-12-14T07:52:20.585Z,3.97
2022-12-14T07:53:17.476Z,3.33
2022-12-14T07:54:14.798Z,3.18
2022-12-14T07:55:13.049Z,3.72
2022-12-14T07:56:28.304Z,3.10
2022-12-14T07:57:25.157Z,3.22
2022-12-14T07:58:27.345Z,3.71
2022-12-14T07:59:24.248Z,3.65
2022-12-14T08:00:24.525Z,4.03
2022-12-14T08:01:24.950Z,3.88
2022-12-14T08:02:21.916Z,3.39
2022-12-14T08:03:18.873Z,3.95
2022-12-14T08:04:20.204Z,3.91
2022-12-14T08:05:17.171Z,3.76
2022-12-14T08:06:15.611Z,3.52
2022-12-14T08:07:12.446Z,3.51
2022-12-14T08:08:09.198Z,3.79
2022-12-14T08:09:08.502Z,3.77
2022-12-14T08:10:07.338Z,4.03
2022-12-14T08:11:05.195Z,3.85
2022-12-14T08:12:02.125Z,3.67
2022-12-14T08:12:58.885Z,3.24
2022-12-14T08:13:58.458Z,3.70
2022-12-14T08:14:55.269Z,2.61
2022-12-14T08:15:52.029Z,3.43
2022-12-14T08:16:50.188Z,1.90
2022-12-14T08:17:46.998Z,3.03
2022-12-14T08:18:44.621Z,3.50
2022-12-14T08:19:41.406Z,3.32
2022-12-14T08:20:38.266Z,2.22
2022-12-14T08:21:35.453Z,2.26
2022-12-14T08:22:32.256Z,2.69
2022-12-14T08:23:29.693Z,3.56
2022-12-14T08:24:26.840Z,2.64
2022-12-14T08:25:23.588Z,2.91
2022-12-14T08:26:21.983Z,3.48
2022-12-14T08:27:18.892Z,3.81
2022-12-14T08:28:15.754Z,3.75
2022-12-14T08:29:14.702Z,3.69
2022-12-14T08:30:11.699Z,3.39
2022-12-14T08:31:11.987Z,3.56
2022-12-14T08:32:08.791Z,3.80
2022-12-14T08:33:05.869Z,3.87
2022-12-14T08:34:03.252Z,3.06
2022-12-14T08:35:00.002Z,3.28
2022-12-14T08:35:56.734Z,3.83
2022-12-14T08:36:53.553Z,2.46
2022-12-14T08:37:52.729Z,3.68
2022-12-14T08:38:54.150Z,3.19
2022-12-14T08:39:50.993Z,4.15
2022-12-14T08:40:47.979Z,4.19
2022-12-14T08:41:44.913Z,4.11
2022-12-14T08:42:41.717Z,3.22
2022-12-14T08:43:39.267Z,3.01
2022-12-14T08:44:36.229Z,3.90
2022-12-14T08:45:33.861Z,4.05
2022-12-14T08:46:33.406Z,3.17
2022-12-14T08:47:30.282Z,3.27
2022-12-14T08:48:27.193Z,3.45
2022-12-14T08:49:29.066Z,3.65
2022-12-14T08:50:29.641Z,3.05
2022-12-14T08:51:28.214Z,3.81
2022-12-14T08:52:25.040Z,3.41
2022-12-14T08:53:21.766Z,3.91
2022-12-14T08:54:19.565Z,3.43
2022-12-14T08:55:18.106Z,3.89
2022-12-14T08:56:19.625Z,3.27
2022-12-14T08:57:16.474Z,3.68
2022-12-14T08:58:13.999Z,3.81
2022-12-14T08:59:19.808Z,3.91
2022-12-14T09:00:27.093Z,2.14
2022-12-14T09:01:33.372Z,3.47
2022-12-14T09:02:31.298Z,3.83
2022-12-14T09:03:28.448Z,3.50
2022-12-14T09:04:26.242Z,3.58
2022-12-14T09:05:23.003Z,3.55
2022-12-14T09:06:24.139Z,3.81
2022-12-14T09:07:20.975Z,4.02
2022-12-14T09:08:17.707Z,3.84
2022-12-14T09:09:16.663Z,3.67
2022-12-14T09:10:14.026Z,3.23
2022-12-14T09:11:13.331Z,3.24
2022-12-14T09:12:10.041Z,3.16
2022-12-14T09:13:06.864Z,3.77
2022-12-14T09:14:03.699Z,3.77
2022-12-14T09:15:01.040Z,4.03
2022-12-14T09:16:05.247Z,3.63
2022-12-14T09:17:03.370Z,3.67
2022-12-14T09:18:00.201Z,3.20
2022-12-14T09:18:56.998Z,4.21
2022-12-14T09:19:53.718Z,3.85
2022-12-14T09:20:54.325Z,3.69
2022-12-14T09:21:51.194Z,4.03
2022-12-14T09:22:51.334Z,3.85
2022-12-14T09:23:51.393Z,4.10
2022-12-14T09:24:52.533Z,4.31
2022-12-14T09:26:10.124Z,3.21
2022-12-14T09:27:07.181Z,4.07
2022-12-14T09:28:03.966Z,3.41
2022-12-14T09:29:00.824Z,2.69
2022-12-14T09:29:57.648Z,2.97
2022-12-14T09:30:59.528Z,3.59
2022-12-14T09:31:56.825Z,3.46
2022-12-14T09:32:53.647Z,3.80
2022-12-14T09:33:50.995Z,3.33
2022-12-14T09:34:47.771Z,3.55
2022-12-14T09:35:44.513Z,4.14
2022-12-14T09:36:42.188Z,4.60
2022-12-14T09:37:39.308Z,4.53
2022-12-14T09:38:37.920Z,4.18
2022-12-14T09:39:36.047Z,4.67
2022-12-14T09:40:33.451Z,3.67
2022-12-14T09:41:36.449Z,4.44
2022-12-14T09:43:04.399Z,4.67
2022-12-14T09:44:18.234Z,4.54
2022-12-14T09:45:22.841Z,4.43
2022-12-14T09:46:19.579Z,4.49
2022-12-14T09:47:34.892Z,4.67
2022-12-14T09:48:34.734Z,4.34
2022-12-14T09:49:48.121Z,3.92
2022-12-14T09:50:50.288Z,3.64
2022-12-14T09:51:47.456Z,4.09
2022-12-14T09:52:59.341Z,3.40
2022-12-14T09:54:12.658Z,3.23
2022-12-14T09:55:32.217Z,4.27
2022-12-14T09:56:29.154Z,4.54
2022-12-14T09:57:37.777Z,4.63
2022-12-14T09:58:36.809Z,3.16
2022-12-14T09:59:34.224Z,4.44
2022-12-14T10:00:53.202Z,3.61
2022-12-14T10:02:30.811Z,4.51
2022-12-14T10:03:50.373Z,4.60
2022-12-14T10:05:05.195Z,3.59
2022-12-14T10:06:45.077Z,3.97
2022-12-14T10:07:49.113Z,2.79
2022-12-14T10:09:03.097Z,2.47
2022-12-14T10:10:18.967Z,3.88
2022-12-14T10:11:49.684Z,4.81
2022-12-14T10:12:59.876Z,4.76
2022-12-14T10:14:17.306Z,4.44
2022-12-14T10:15:38.166Z,4.63
2022-12-14T10:16:51.669Z,4.72
2022-12-14T10:18:17.538Z,5.03
2022-12-14T10:19:40.687Z,4.55
2022-12-14T10:20:42.947Z,4.38
2022-12-14T10:21:57.481Z,3.88
2022-12-14T10:22:54.951Z,4.32
2022-12-14T10:24:00.482Z,4.47
2022-12-14T10:25:21.669Z,4.47
2022-12-14T10:26:22.927Z,4.72
2022-12-14T10:27:27.402Z,4.69
2022-12-14T10:28:27.413Z,4.51
2022-12-14T10:29:53.964Z,4.68
2022-12-14T10:30:57.463Z,2.14
2022-12-14T10:32:02.398Z,3.48
2022-12-14T10:33:26.418Z,3.44
2022-12-14T10:34:29.700Z,3.07
2022-12-14T10:35:40.955Z,4.29
2022-12-14T10:36:57.918Z,4.54
2022-12-14T10:38:13.338Z,4.31
2022-12-14T10:39:31.075Z,4.17
2022-12-14T10:40:34.505Z,4.60
2022-12-14T10:41:50.406Z,4.71
2022-12-14T10:43:00.526Z,4.53
2022-12-14T10:44:15.964Z,4.46
2022-12-14T10:45:40.459Z,3.36
2022-12-14T10:46:44.410Z,4.81
2022-12-14T10:47:47.914Z,4.22
2022-12-14T10:49:11.902Z,4.62
2022-12-14T10:50:38.835Z,4.77
2022-12-14T10:51:43.535Z,4.76
2022-12-14T10:52:43.355Z,4.84
2022-12-14T10:54:03.085Z,4.62
2022-12-14T10:55:04.759Z,3.81
2022-12-14T10:56:09.857Z,3.32
2022-12-14T10:57:06.682Z,4.59
2022-12-14T10:58:03.583Z,4.47
2022-12-14T10:59:18.516Z,4.68
2022-12-14T11:00:22.835Z,4.88
2022-12-14T11:01:22.123Z,4.89
2022-12-14T11:02:22.583Z,1.78
2022-12-14T11:03:19.579Z,4.91
2022-12-14T11:04:38.889Z,4.61
2022-12-14T11:12:36.006Z,3.28
2022-12-14T11:13:32.840Z,5.00
2022-12-14T11:14:29.837Z,3.77
2022-12-14T11:15:39.780Z,5.33
2022-12-14T11:16:39.935Z,5.31
2022-12-14T11:17:44.386Z,4.74
2022-12-14T11:18:41.420Z,5.51
2022-12-14T11:19:38.192Z,5.60
2022-12-14T11:20:35.160Z,4.12
2022-12-14T11:21:38.100Z,5.35
2022-12-14T11:22:46.112Z,5.03
2022-12-14T11:23:58.722Z,4.41
2022-12-14T11:25:02.183Z,5.34
2022-12-14T11:26:07.067Z,5.35
2022-12-14T11:27:06.727Z,5.41
2022-12-14T11:28:23.386Z,4.20
2022-12-14T11:29:31.807Z,5.15
2022-12-14T11:30:29.701Z,4.80
2022-12-14T11:31:45.087Z,4.86
2022-12-14T11:32:45.945Z,3.27
2022-12-14T11:33:52.174Z,4.68
2022-12-14T11:34:56.762Z,3.86
2022-12-14T11:35:53.652Z,3.85
2022-12-14T11:36:50.649Z,4.10
2022-12-14T11:37:58.157Z,3.97
2022-12-14T11:39:01.201Z,4.28
2022-12-14T11:40:03.793Z,4.95
2022-12-14T11:41:10.739Z,4.64
2022-12-14T11:42:20.967Z,4.72
2022-12-14T11:43:38.957Z,3.70
2022-12-14T11:44:37.327Z,3.37
2022-12-14T11:45:36.523Z,3.63
2022-12-14T11:46:45.002Z,5.02
2022-12-14T11:47:42.104Z,4.67
2022-12-14T11:48:49.179Z,4.10
2022-12-14T11:49:54.347Z,4.04
2022-12-14T11:51:08.697Z,3.51
2022-12-14T11:52:05.420Z,4.92
2022-12-14T11:53:11.702Z,4.35
2022-12-14T11:54:08.733Z,4.42
2022-12-14T11:55:26.537Z,2.66
2022-12-14T11:56:23.945Z,4.45
2022-12-14T11:57:42.676Z,4.11
2022-12-14T11:58:49.144Z,3.63
2022-12-14T12:00:00.836Z,4.37
2022-12-14T12:01:06.972Z,4.35
2022-12-14T12:02:27.713Z,4.83
2022-12-14T12:03:39.694Z,4.42
2022-12-14T12:04:46.460Z,3.43
2022-12-14T12:05:44.911Z,3.60
2022-12-14T12:06:43.123Z,3.12
2022-12-14T12:07:45.887Z,3.91
2022-12-14T12:08:44.777Z,4.72
2022-12-14T12:09:42.469Z,4.93
2022-12-14T12:10:50.569Z,5.22
2022-12-14T12:11:47.551Z,5.45
2022-12-14T12:13:06.172Z,4.79
2022-12-14T12:14:29.924Z,5.10
2022-12-14T12:15:36.106Z,5.00
2022-12-14T12:16:35.506Z,5.05
2022-12-14T12:17:42.449Z,4.71
2022-12-14T12:18:57.809Z,3.78
2022-12-14T12:19:54.949Z,3.05
2022-12-14T12:21:04.610Z,3.88
2022-12-14T12:22:04.372Z,4.76
2022-12-14T12:23:15.624Z,4.90
2022-12-14T12:24:22.214Z,4.56
2022-12-14T12:25:27.517Z,4.58
2022-12-14T12:26:42.600Z,4.76
2022-12-14T12:27:40.161Z,4.46
2022-12-14T12:28:45.618Z,2.75
2022-12-14T12:29:48.632Z,4.87
2022-12-14T12:30:51.454Z,4.56
2022-12-14T12:32:07.842Z,4.30
2022-12-14T12:33:24.514Z,4.99
2022-12-14T12:34:33.976Z,3.33
2022-12-14T12:35:54.686Z,5.29
2022-12-14T12:37:24.638Z,4.93
2022-12-14T12:38:40.102Z,4.85
2022-12-14T12:39:43.043Z,5.21
2022-12-14T12:41:21.278Z,4.87
2022-12-14T12:42:21.005Z,4.75
2022-12-14T12:43:30.144Z,4.20
2022-12-14T12:44:49.633Z,4.71
2022-12-14T12:45:51.442Z,4.86
2022-12-14T12:47:46.016Z,4.64
2022-12-14T12:48:50.806Z,4.50
2022-12-14T12:49:48.950Z,4.36
2022-12-14T12:50:51.706Z,4.78
2022-12-14T12:51:58.999Z,4.44
2022-12-14T12:53:13.420Z,4.60
2022-12-14T12:54:46.992Z,4.76
2022-12-14T12:56:02.092Z,5.55
2022-12-14T12:57:03.203Z,5.20
2022-12-14T12:58:05.084Z,5.48
2022-12-14T12:59:05.224Z,5.11
2022-12-14T13:00:03.840Z,4.08
2022-12-14T13:01:27.288Z,4.79
2022-12-14T13:02:32.329Z,5.59
2022-12-14T13:03:40.092Z,5.57
2022-12-14T13:04:41.706Z,5.76
2022-12-14T13:05:47.326Z,5.20
2022-12-14T13:06:57.142Z,3.63
2022-12-14T13:08:33.718Z,4.97
2022-12-14T13:09:48.664Z,4.77
2022-12-14T13:12:20.967Z,3.80
2022-12-14T13:13:34.754Z,4.24
2022-12-14T13:14:38.524Z,4.93
2022-12-14T13:15:45.074Z,4.92
2022-12-14T13:16:43.690Z,4.91
2022-12-14T13:17:51.964Z,4.97
2022-12-14T13:19:13.398Z,3.98
2022-12-14T13:20:35.897Z,4.03
2022-12-14T13:21:42.688Z,5.04
2022-12-14T13:22:41.389Z,4.53
2022-12-14T13:23:45.926Z,4.84
2022-12-14T13:24:48.192Z,4.85
2022-12-14T13:26:48.536Z,4.98
2022-12-14T13:27:36.157Z,5.13
2022-12-14T13:28:57.822Z,5.18
2022-12-14T13:30:16.098Z,5.05
2022-12-14T13:31:20.389Z,5.26
2022-12-14T13:32:37.957Z,4.85
2022-12-14T13:33:55.586Z,5.34
2022-12-14T13:35:07.310Z,5.32
2022-12-14T13:36:37.249Z,5.05
2022-12-14T13:37:58.744Z,5.13
2022-12-14T13:39:13.700Z,5.13
2022-12-14T13:40:56.222Z,5.48
2022-12-14T13:42:11.670Z,5.12
2022-12-14T13:43:23.004Z,5.52
2022-12-14T13:44:48.712Z,5.37
2022-12-14T13:45:49.879Z,3.76
2022-12-14T13:46:59.316Z,4.54
2022-12-14T13:47:58.788Z,5.19
2022-12-14T13:49:02.987Z,4.26
2022-12-14T13:50:34.807Z,3.12
2022-12-14T13:51:39.986Z,5.25
2022-12-14T13:52:42.004Z,5.14
2022-12-14T13:53:50.184Z,5.46
2022-12-14T13:54:47.752Z,4.96
2022-12-14T13:55:53.195Z,4.91
2022-12-14T13:56:50.591Z,5.08
2022-12-14T13:57:47.605Z,3.77
2022-12-14T13:58:51.316Z,4.90
2022-12-14T13:59:54.576Z,4.95
2022-12-14T14:00:56.207Z,5.22
2022-12-14T14:01:56.843Z,3.84
2022-12-14T14:02:53.911Z,4.97
2022-12-14T14:04:16.643Z,4.01
2022-12-14T14:05:18.133Z,4.65
2022-12-14T14:06:36.303Z,3.42
2022-12-14T14:07:49.453Z,3.88
2022-12-14T14:08:50.251Z,3.51
2022-12-14T14:09:58.432Z,3.42
2022-12-14T14:11:13.923Z,4.04
2022-12-14T14:12:24.343Z,4.72
2022-12-14T14:13:29.990Z,4.74
2022-12-14T14:15:00.429Z,4.63
2022-12-14T14:16:31.363Z,4.10
2022-12-14T14:17:40.578Z,4.68
2022-12-14T14:18:50.967Z,3.54
2022-12-14T14:19:50.821Z,4.52
2022-12-14T14:20:55.396Z,3.63
2022-12-14T14:22:22.942Z,4.79
2022-12-14T14:23:23.777Z,4.40
2022-12-14T14:24:22.290Z,3.87
2022-12-14T14:25:34.316Z,4.31
2022-12-14T14:26:35.543Z,4.22
2022-12-14T14:27:50.110Z,4.40